Time;durP1;ratioP1;P1;durP2;ratioP2;P2;SDS_P1;SDS_P2;PMS_P1;PMS_P2;Temp;Humidity;BMP_temperature;BMP_pressure;BME280_temperature;BME280_humidity;BME280_pressure;Samples;Min_cycle;Max_cycle;Signal;HPM_P1;HPM_P2
2022/08/27 00:00:30;;;;;;;4.50;1.92;;;;;;;22.51;58.35;99824.53;5035043;28;20045;-85
2022/08/27 00:02:58;;;;;;;4.07;1.50;;;;;;;22.50;58.14;99823.69;5035344;28;20060;-84
2022/08/27 00:05:24;;;;;;;5.75;1.85;;;;;;;22.49;58.24;99821.16;5034800;28;20063;-85
2022/08/27 00:07:51;;;;;;;6.72;1.67;;;;;;;22.47;58.12;99824.00;5035025;28;20079;-86
2022/08/27 00:10:21;;;;;;;3.40;1.67;;;;;;;22.47;58.30;99828.56;5034138;28;20061;-85
2022/08/27 00:12:48;;;;;;;3.40;1.50;;;;;;;22.46;58.33;99821.53;5035207;28;20049;-85
2022/08/27 00:15:15;;;;;;;5.75;1.75;;;;;;;22.45;58.04;99825.19;5035681;28;20426;-85
2022/08/27 00:17:44;;;;;;;9.10;1.58;;;;;;;22.43;58.22;99828.03;5035606;28;20053;-86
2022/08/27 00:20:14;;;;;;;3.70;1.55;;;;;;;22.41;58.44;99823.84;5035172;28;20049;-86
2022/08/27 00:22:41;;;;;;;6.10;1.55;;;;;;;22.40;58.31;99820.31;5034981;28;20518;-85
2022/08/27 00:25:09;;;;;;;5.35;1.52;;;;;;;22.39;58.20;99813.28;5035066;28;20064;-87
2022/08/27 00:27:36;;;;;;;4.05;1.42;;;;;;;22.38;58.26;99811.59;5034952;28;20061;-86
2022/08/27 00:30:05;;;;;;;3.22;1.20;;;;;;;22.37;58.03;99817.97;5034907;28;20053;-87
2022/08/27 00:32:32;;;;;;;3.75;1.63;;;;;;;22.36;57.91;99814.44;5035323;28;20049;-86
2022/08/27 00:34:58;;;;;;;4.22;1.02;;;;;;;22.36;58.05;99817.13;5033888;28;20126;-85
2022/08/27 00:37:25;;;;;;;6.00;1.30;;;;;;;22.35;57.85;99825.34;5033998;28;20049;-86
2022/08/27 00:39:52;;;;;;;4.07;1.02;;;;;;;22.35;57.82;99812.75;5035070;28;20045;-86
2022/08/27 00:42:19;;;;;;;4.47;1.30;;;;;;;22.35;57.40;99809.25;5035460;28;20045;-86
2022/08/27 00:44:45;;;;;;;5.00;1.35;;;;;;;22.33;57.79;99812.09;5036164;28;20115;-84
2022/08/27 00:47:17;;;;;;;6.22;1.20;;;;;;;22.31;57.83;99813.28;5036157;28;20053;-86
2022/08/27 00:49:53;;;;;;;8.05;1.60;;;;;;;22.28;57.71;99818.94;5036475;28;20041;-86
2022/08/27 00:52:32;;;;;;;3.85;1.05;;;;;;;22.27;57.77;99820.78;5036666;28;20103;-86
2022/08/27 00:55:08;;;;;;;6.53;1.10;;;;;;;22.27;57.98;99820.78;5036140;28;20518;-86
2022/08/27 00:57:37;;;;;;;3.80;1.23;;;;;;;22.29;57.59;99823.31;5034328;28;20107;-84
2022/08/27 01:00:07;;;;;;;4.07;1.35;;;;;;;22.28;57.52;99829.69;5034530;28;20053;-83
2022/08/27 01:02:34;;;;;;;3.05;1.00;;;;;;;22.28;57.64;99821.63;5036013;28;20056;-86
2022/08/27 01:05:07;;;;;;;4.72;1.10;;;;;;;22.24;57.65;99824.63;5036371;28;20060;-86
2022/08/27 01:07:38;;;;;;;5.57;1.10;;;;;;;22.25;57.75;99828.97;5034637;28;20056;-82
2022/08/27 01:10:18;;;;;;;4.60;1.17;;;;;;;22.25;57.59;99825.47;5036433;28;20052;-83
2022/08/27 01:12:45;;;;;;;4.20;1.10;;;;;;;22.26;57.34;99827.16;5036359;28;20510;-83
2022/08/27 01:15:21;;;;;;;3.25;1.00;;;;;;;22.24;57.79;99827.31;5035771;28;20046;-83
2022/08/27 01:17:48;;;;;;;2.50;0.98;;;;;;;22.24;57.56;99823.81;5034328;28;20499;-84
2022/08/27 01:20:19;;;;;;;3.97;1.20;;;;;;;22.23;57.85;99830.16;5035745;28;20054;-83
2022/08/27 01:23:03;;;;;;;5.18;1.17;;;;;;;22.19;57.51;99829.63;5037432;28;20388;-83
2022/08/27 01:25:30;;;;;;;4.82;1.20;;;;;;;22.23;57.35;99827.47;5035685;28;20057;-82
2022/08/27 01:27:59;;;;;;;3.97;0.90;;;;;;;22.21;57.36;99829.47;5035191;28;20053;-83
2022/08/27 01:30:26;;;;;;;5.82;1.20;;;;;;;22.19;57.14;99828.78;5036073;28;20275;-82
2022/08/27 01:32:53;;;;;;;3.63;1.30;;;;;;;22.17;57.39;99825.44;5036898;28;20053;-83
2022/08/27 01:35:22;;;;;;;5.07;1.08;;;;;;;22.15;57.27;99822.91;5036350;28;20367;-84
2022/08/27 01:37:52;;;;;;;3.45;1.05;;;;;;;22.11;57.33;99818.88;5036769;28;20053;-84
2022/08/27 01:40:23;;;;;;;3.35;1.23;;;;;;;22.10;57.55;99825.25;5037393;28;20053;-84
2022/08/27 01:42:54;;;;;;;1.90;0.90;;;;;;;22.07;57.39;99822.88;5036428;28;20522;-84
2022/08/27 01:45:31;;;;;;;2.58;1.15;;;;;;;22.03;57.67;99827.75;5036914;28;20049;-84
2022/08/27 01:47:59;;;;;;;3.85;1.10;;;;;;;22.05;57.58;99819.53;5036333;28;20057;-84
2022/08/27 01:50:30;;;;;;;4.95;1.27;;;;;;;22.02;57.62;99823.38;5036605;28;20072;-84
2022/08/27 01:53:03;;;;;;;3.83;0.90;;;;;;;22.00;57.48;99815.50;5038693;28;20048;-84
2022/08/27 01:55:29;;;;;;;2.63;1.00;;;;;;;22.00;57.52;99820.88;5037309;28;20053;-85
2022/08/27 01:57:56;;;;;;;2.78;0.80;;;;;;;21.99;57.56;99816.47;5036032;28;20053;-85
2022/08/27 02:00:33;;;;;;;2.50;1.10;;;;;;;21.96;57.68;99819.50;5035477;28;20514;-85
2022/08/27 02:03:00;;;;;;;3.38;1.10;;;;;;;21.97;57.42;99823.84;5035819;28;20103;-85
2022/08/27 02:05:27;;;;;;;2.15;0.98;;;;;;;21.98;57.64;99820.16;5036214;28;20057;-83
2022/08/27 02:07:55;;;;;;;2.15;0.95;;;;;;;21.98;57.62;99820.16;5036525;28;20064;-83
2022/08/27 02:10:26;;;;;;;3.15;0.95;;;;;;;21.98;57.61;99822.84;5036140;28;20529;-83
2022/08/27 02:12:53;;;;;;;3.30;1.00;;;;;;;22.00;57.59;99823.53;5035856;28;20048;-83
2022/08/27 02:15:20;;;;;;;5.35;1.17;;;;;;;21.99;57.65;99821.84;5035118;28;20049;-83
2022/08/27 02:17:47;;;;;;;5.90;1.15;;;;;;;22.00;57.51;99818.19;5036148;28;20061;-83
2022/08/27 02:20:14;;;;;;;3.05;1.00;;;;;;;21.99;57.47;99811.13;5035163;28;20569;-83
2022/08/27 02:22:41;;;;;;;4.65;1.08;;;;;;;22.00;57.29;99810.16;5035845;28;20415;-83
2022/08/27 02:25:11;;;;;;;4.97;1.10;;;;;;;22.00;57.49;99811.97;5034399;28;20069;-83
2022/08/27 02:27:37;;;;;;;4.45;1.17;;;;;;;21.98;57.19;99812.13;5036025;28;20080;-83
2022/08/27 02:30:05;;;;;;;2.85;1.10;;;;;;;21.98;57.33;99814.81;5035557;28;20509;-83
2022/08/27 02:32:31;;;;;;;5.70;1.00;;;;;;;21.96;57.20;99814.16;5034213;28;20053;-83
2022/08/27 02:34:59;;;;;;;3.38;1.10;;;;;;;21.96;57.27;99815.97;5035495;28;20062;-83
2022/08/27 02:37:27;;;;;;;3.08;1.20;;;;;;;21.92;57.21;99815.47;5035005;28;20060;-83
2022/08/27 02:39:53;;;;;;;4.38;1.38;;;;;;;21.91;57.27;99819.16;5034326;28;20068;-83
2022/08/27 02:42:20;;;;;;;3.05;1.00;;;;;;;21.91;57.43;99820.97;5034166;28;20388;-83
2022/08/27 02:44:47;;;;;;;2.58;1.00;;;;;;;21.88;57.54;99816.78;5033592;28;20404;-83
2022/08/27 02:47:15;;;;;;;5.18;1.33;;;;;;;21.87;57.46;99823.97;5034883;28;20053;-83
2022/08/27 02:49:43;;;;;;;3.85;1.20;;;;;;;21.86;57.46;99816.09;5034284;28;20136;-84
2022/08/27 02:52:09;;;;;;;6.03;1.10;;;;;;;21.83;57.20;99819.94;5033783;28;20045;-85
2022/08/27 02:54:36;;;;;;;2.30;0.90;;;;;;;21.81;57.32;99818.41;5033861;28;20053;-86
2022/08/27 02:57:04;;;;;;;2.30;0.95;;;;;;;21.80;57.42;99816.75;5034549;28;20049;-83
2022/08/27 02:59:30;;;;;;;2.97;1.05;;;;;;;21.78;57.40;99824.09;5034924;28;20053;-82
2022/08/27 03:01:57;;;;;;;4.80;1.10;;;;;;;21.76;57.39;99826.09;5035686;28;20045;-83
2022/08/27 03:04:24;;;;;;;4.03;1.20;;;;;;;21.74;57.38;99823.56;5036387;28;20132;-83
2022/08/27 03:06:50;;;;;;;4.70;1.02;;;;;;;21.73;57.69;99822.75;5035439;28;20054;-83
2022/08/27 03:09:17;;;;;;;3.50;1.00;;;;;;;21.73;57.38;99821.91;5033898;28;20049;-83
2022/08/27 03:11:43;;;;;;;5.20;1.10;;;;;;;21.72;57.45;99821.03;5034632;28;20045;-83
2022/08/27 03:14:11;;;;;;;4.28;1.40;;;;;;;21.71;57.35;99822.03;5035070;28;20057;-83
2022/08/27 03:16:38;;;;;;;3.33;1.20;;;;;;;21.72;57.48;99815.69;5035030;28;20053;-83
2022/08/27 03:19:06;;;;;;;3.35;1.30;;;;;;;21.70;57.43;99816.81;5035066;28;20060;-82
2022/08/27 03:21:34;;;;;;;2.65;1.05;;;;;;;21.69;57.20;99818.69;5035705;28;20050;-83
2022/08/27 03:24:01;;;;;;;3.03;1.08;;;;;;;21.68;57.19;99813.47;5032794;28;20087;-84
2022/08/27 03:26:38;;;;;;;4.70;1.15;;;;;;;21.66;57.26;99819.00;5034062;28;20050;-83
2022/08/27 03:29:06;;;;;;;3.90;1.00;;;;;;;21.65;57.34;99817.31;5034813;28;20447;-83
2022/08/27 03:31:33;;;;;;;4.15;1.10;;;;;;;21.64;57.62;99812.94;5033972;28;20053;-83
2022/08/27 03:34:03;;;;;;;4.05;1.25;;;;;;;21.63;57.35;99813.94;5034968;28;20041;-83
2022/08/27 03:36:30;;;;;;;3.45;1.02;;;;;;;21.64;57.41;99815.59;5032865;28;20438;-83
2022/08/27 03:38:57;;;;;;;3.67;1.00;;;;;;;21.65;57.47;99819.13;5033353;28;20057;-84
2022/08/27 03:41:24;;;;;;;1.65;1.10;;;;;;;21.64;57.44;99817.47;5034685;28;20060;-84
2022/08/27 03:44:11;;;;;;;3.70;1.13;;;;;;;21.65;57.18;99811.97;5033866;28;20053;-84
2022/08/27 03:46:47;;;;;;;3.97;1.10;;;;;;;21.66;57.27;99810.09;5034922;28;20077;-83
2022/08/27 03:49:14;;;;;;;4.03;1.42;;;;;;;21.65;57.29;99803.91;5033983;28;20141;-84
2022/08/27 03:51:46;;;;;;;6.53;1.30;;;;;;;21.64;57.15;99812.09;5034941;28;20057;-84
2022/08/27 03:54:12;;;;;;;3.38;1.27;;;;;;;21.63;57.34;99813.94;5034007;28;20058;-85
2022/08/27 03:56:40;;;;;;;4.00;1.23;;;;;;;21.61;57.17;99806.06;5033828;28;20060;-87
2022/08/27 03:59:07;;;;;;;3.80;1.30;;;;;;;21.60;57.23;99811.56;5032924;28;20510;-87
2022/08/27 04:01:33;;;;;;;4.85;1.20;;;;;;;21.58;57.07;99813.56;5033347;28;20088;-84
2022/08/27 04:04:00;;;;;;;3.00;1.15;;;;;;;21.55;57.21;99814.75;5033150;28;20045;-87
2022/08/27 04:06:27;;;;;;;4.88;1.17;;;;;;;21.53;57.10;99807.84;5033435;28;20064;-85
2022/08/27 04:08:53;;;;;;;3.33;1.27;;;;;;;21.50;57.11;99809.03;5033392;28;20056;-86
2022/08/27 04:11:20;;;;;;;4.68;1.10;;;;;;;21.47;57.07;99812.00;5032818;28;20056;-85
2022/08/27 04:13:47;;;;;;;5.38;1.10;;;;;;;21.46;57.25;99819.19;5033131;28;20049;-85
2022/08/27 04:16:14;;;;;;;2.47;1.25;;;;;;;21.45;57.13;99814.84;5032975;28;20057;-86
2022/08/27 04:18:41;;;;;;;5.07;1.33;;;;;;;21.41;57.06;99820.69;5032878;28;20053;-84
2022/08/27 04:21:10;;;;;;;3.35;1.10;;;;;;;21.39;57.03;99822.66;5031521;28;20049;-85
2022/08/27 04:23:38;;;;;;;2.83;1.30;;;;;;;21.37;57.20;99825.47;5033781;28;20049;-86
2022/08/27 04:26:07;;;;;;;3.22;1.05;;;;;;;21.35;57.14;99825.63;5033873;28;20049;-84
2022/08/27 04:28:34;;;;;;;4.20;1.42;;;;;;;21.35;57.50;99832.84;5033978;28;20403;-86
2022/08/27 04:31:05;;;;;;;3.17;0.98;;;;;;;21.34;57.23;99833.81;5033631;28;20136;-84
2022/08/27 04:33:34;;;;;;;5.80;1.20;;;;;;;21.32;57.20;99833.16;5033297;28;20414;-86
2022/08/27 04:36:04;;;;;;;4.25;1.10;;;;;;;21.30;57.25;99838.66;5032454;28;20056;-86
2022/08/27 04:38:32;;;;;;;3.50;1.40;;;;;;;21.31;57.42;99842.19;5033682;28;20049;-87
2022/08/27 04:41:18;;;;;;;4.03;1.45;;;;;;;21.28;57.29;99845.16;5034734;28;20140;-87
2022/08/27 04:43:56;;;;;;;4.40;1.45;;;;;;;21.25;57.68;99846.31;5033095;28;20046;-86
2022/08/27 04:46:29;;;;;;;4.45;1.45;;;;;;;21.25;57.55;99846.31;5035411;28;20495;-86
2022/08/27 04:48:58;;;;;;;2.33;1.20;;;;;;;21.26;57.37;99847.19;5034289;28;20053;-86
2022/08/27 04:51:25;;;;;;;6.15;1.45;;;;;;;21.26;57.37;99844.50;5033004;28;20060;-85
2022/08/27 04:53:52;;;;;;;4.28;1.33;;;;;;;21.24;57.37;99847.31;5033512;28;20647;-86
2022/08/27 04:56:22;;;;;;;2.80;1.00;;;;;;;21.22;57.58;99847.47;5034662;28;20064;-84
2022/08/27 04:58:52;;;;;;;4.03;1.10;;;;;;;21.20;57.51;99844.09;5033971;28;20055;-86
2022/08/27 05:01:25;;;;;;;2.03;1.00;;;;;;;21.18;57.52;99846.09;5031710;28;20064;-85
2022/08/27 05:03:53;;;;;;;2.75;1.10;;;;;;;21.18;57.52;99846.09;5032677;28;20084;-87
2022/08/27 05:06:20;;;;;;;3.25;1.13;;;;;;;21.17;57.58;99846.25;5032225;28;20058;-86
2022/08/27 05:08:49;;;;;;;2.97;1.40;;;;;;;21.16;57.42;99855.28;5032310;28;20053;-85
2022/08/27 05:11:17;;;;;;;5.47;1.25;;;;;;;21.13;57.43;99851.09;5034027;28;20515;-83
2022/08/27 05:13:45;;;;;;;4.20;1.05;;;;;;;21.13;57.52;99853.75;5032620;28;20057;-85
2022/08/27 05:16:14;;;;;;;4.85;1.10;;;;;;;21.12;57.74;99851.22;5032991;28;20056;-85
2022/08/27 05:18:41;;;;;;;3.95;1.17;;;;;;;21.11;57.52;99847.72;5033765;28;20080;-84
2022/08/27 05:21:19;;;;;;;4.95;1.45;;;;;;;21.08;57.69;99850.69;5033632;28;20049;-85
2022/08/27 05:23:47;;;;;;;4.90;1.48;;;;;;;21.11;57.63;99862.94;5032625;28;20083;-85
2022/08/27 05:26:14;;;;;;;4.05;1.10;;;;;;;21.07;57.42;99852.53;5034115;28;20065;-85
2022/08/27 05:28:41;;;;;;;2.65;1.17;;;;;;;21.06;57.56;99848.19;5033241;28;20332;-84
2022/08/27 05:31:10;;;;;;;14.18;1.75;;;;;;;21.06;57.60;99853.53;5033666;28;20049;-85
2022/08/27 05:33:38;;;;;;;8.85;1.52;;;;;;;21.05;57.67;99845.66;5033983;28;20054;-85
2022/08/27 05:36:06;;;;;;;1.98;0.90;;;;;;;21.05;57.84;99854.50;5032591;28;20119;-86
2022/08/27 05:38:33;;;;;;;2.75;1.08;;;;;;;21.04;57.80;99852.84;5032116;28;20053;-87
2022/08/27 05:41:10;;;;;;;4.38;1.35;;;;;;;21.01;58.04;99855.81;5031079;28;20045;-84
2022/08/27 05:43:39;;;;;;;3.15;1.13;;;;;;;21.04;57.60;99865.41;5032323;28;20061;-85
2022/08/27 05:46:08;;;;;;;5.28;1.45;;;;;;;21.03;57.68;99858.34;5032676;28;20056;-85
2022/08/27 05:48:36;;;;;;;4.68;1.15;;;;;;;21.01;57.71;99861.16;5035857;28;20053;-85
2022/08/27 05:51:07;;;;;;;5.90;1.38;;;;;;;21.01;57.94;99858.50;5034659;28;20057;-86
2022/08/27 05:53:34;;;;;;;6.45;1.58;;;;;;;21.02;57.72;99862.00;5035210;28;20057;-86
2022/08/27 05:56:01;;;;;;;4.53;1.48;;;;;;;21.03;57.58;99858.34;5035347;28;20053;-86
2022/08/27 06:01:19;;;;;;;3.83;1.27;;;;;;;21.02;57.49;99856.66;5039071;28;20335;-88
2022/08/27 06:03:46;;;;;;;3.20;1.20;;;;;;;21.03;57.76;99861.00;5040358;28;20072;-87
2022/08/27 06:06:13;;;;;;;5.32;1.25;;;;;;;21.02;57.69;99857.50;5037934;28;20057;-87
2022/08/27 06:08:39;;;;;;;4.38;1.45;;;;;;;21.02;57.85;99857.50;5035755;28;20057;-87
2022/08/27 06:11:06;;;;;;;6.15;1.55;;;;;;;21.02;57.22;99856.66;5035034;28;20056;-86
2022/08/27 06:13:34;;;;;;;6.97;1.67;;;;;;;21.02;57.43;99862.00;5035642;28;20053;-87
2022/08/27 06:16:08;;;;;;;5.53;1.60;;;;;;;21.00;57.31;99858.66;5033833;28;20084;-84
2022/08/27 06:18:39;;;;;;;5.97;1.70;;;;;;;21.01;57.52;99860.34;5034445;28;20514;-84
2022/08/27 06:21:06;;;;;;;3.60;1.23;;;;;;;21.02;57.43;99859.34;5034375;28;20053;-85
2022/08/27 06:23:33;;;;;;;4.50;1.73;;;;;;;21.01;57.47;99857.66;5033025;28;20049;-84
2022/08/27 06:26:04;;;;;;;8.63;1.38;;;;;;;21.00;57.60;99856.00;5034614;28;20415;-84
2022/08/27 06:28:30;;;;;;;3.10;1.40;;;;;;;21.00;57.47;99858.66;5033763;28;20600;-84
2022/08/27 06:31:16;;;;;;;4.88;1.50;;;;;;;20.96;57.61;99858.97;5034805;28;20077;-85
2022/08/27 06:33:45;;;;;;;3.97;1.30;;;;;;;21.01;57.43;99855.00;5033330;28;20045;-84
2022/08/27 06:36:15;;;;;;;8.88;1.80;;;;;;;20.96;57.45;99853.63;5033173;28;20053;-84
2022/08/27 06:38:42;;;;;;;4.53;1.35;;;;;;;20.99;57.43;99856.97;5035272;28;20506;-84
2022/08/27 06:41:10;;;;;;;6.38;1.48;;;;;;;20.99;57.41;99851.59;5035012;28;20053;-85
2022/08/27 06:43:49;;;;;;;3.45;1.48;;;;;;;21.00;57.56;99856.00;5034638;28;20046;-84
2022/08/27 06:46:18;;;;;;;2.88;1.20;;;;;;;21.00;57.68;99853.31;5033878;28;20073;-85
2022/08/27 06:48:48;;;;;;;6.15;1.42;;;;;;;21.02;57.74;99856.66;5033956;28;20053;-85
2022/08/27 06:51:23;;;;;;;3.15;1.20;;;;;;;21.02;57.78;99860.19;5033807;28;20111;-85
2022/08/27 06:53:51;;;;;;;4.65;1.38;;;;;;;21.06;57.72;99863.38;5034574;28;20495;-84
2022/08/27 06:56:18;;;;;;;6.82;1.48;;;;;;;21.09;57.59;99868.44;5033320;28;20053;-84
2022/08/27 06:58:45;;;;;;;4.85;1.50;;;;;;;21.12;57.62;99859.25;5034088;28;20068;-84
2022/08/27 07:01:14;;;;;;;4.85;1.50;;;;;;;21.14;57.56;99860.78;5034466;28;20546;-86
2022/08/27 07:03:42;;;;;;;5.45;1.15;;;;;;;21.18;57.61;99872.88;5032617;28;20057;-85
2022/08/27 07:06:12;;;;;;;4.13;1.50;;;;;;;21.20;57.47;99865.50;5034841;28;20528;-87
2022/08/27 07:08:39;;;;;;;7.20;1.80;;;;;;;21.25;57.42;99864.22;5032625;28;20170;-87
2022/08/27 07:11:08;;;;;;;3.83;1.30;;;;;;;21.27;57.16;99871.09;5034350;28;20045;-85
2022/08/27 07:13:36;;;;;;;2.33;1.23;;;;;;;21.30;57.28;99881.50;5033035;28;20050;-86
2022/08/27 07:16:05;;;;;;;5.28;1.73;;;;;;;21.32;57.27;99881.34;5034439;28;20069;-84
2022/08/27 07:18:33;;;;;;;4.82;1.60;;;;;;;21.35;57.19;99886.41;5033951;28;20084;-85
2022/08/27 07:20:59;;;;;;;6.20;1.90;;;;;;;21.38;57.09;99882.56;5033564;28;20057;-86
2022/08/27 07:23:27;;;;;;;2.47;1.15;;;;;;;21.40;57.06;99889.44;5033460;28;20100;-87
2022/08/27 07:25:53;;;;;;;4.03;1.80;;;;;;;21.43;57.13;99896.31;5033533;28;20364;-87
2022/08/27 07:28:20;;;;;;;5.30;1.45;;;;;;;21.47;56.96;99895.03;5033373;28;20053;-84
2022/08/27 07:30:47;;;;;;;6.07;1.60;;;;;;;21.49;56.83;99895.69;5033724;28;20050;-84
2022/08/27 07:33:13;;;;;;;4.30;1.60;;;;;;;21.52;56.78;99900.75;5033189;28;20407;-85
2022/08/27 07:35:40;;;;;;;6.10;1.60;;;;;;;21.53;56.65;99902.41;5033319;28;20061;-85
2022/08/27 07:38:13;;;;;;;7.22;1.52;;;;;;;21.55;56.75;99905.78;5033295;28;20053;-83
2022/08/27 07:40:39;;;;;;;6.50;2.15;;;;;;;21.59;56.74;99909.00;5033003;28;20422;-85
2022/08/27 07:46:11;;;;;;;4.15;1.50;;;;;;;21.66;56.50;99906.53;4952356;28;20062;-84
2022/08/27 07:48:37;;;;;;;6.38;1.55;;;;;;;21.68;56.44;99905.38;5017454;28;20049;-84
2022/08/27 07:51:11;;;;;;;3.92;1.55;;;;;;;21.72;56.77;99904.09;5031575;28;20084;-84
2022/08/27 07:53:38;;;;;;;9.38;1.80;;;;;;;21.76;56.65;99903.78;5033243;28;20045;-85
2022/08/27 07:56:07;;;;;;;3.90;1.40;;;;;;;21.78;56.59;99908.00;5033296;28;20057;-84
2022/08/27 07:58:34;;;;;;;5.57;1.70;;;;;;;21.82;56.81;99909.34;5034168;28;20045;-83
2022/08/27 08:01:01;;;;;;;3.13;1.30;;;;;;;21.86;56.81;99912.56;5033320;28;20050;-83
2022/08/27 08:03:28;;;;;;;4.70;1.48;;;;;;;21.91;56.66;99909.41;5033178;28;20133;-82
2022/08/27 08:06:01;;;;;;;7.78;1.60;;;;;;;21.97;56.67;99916.81;5033308;28;20053;-83
2022/08/27 08:08:27;;;;;;;4.88;1.52;;;;;;;22.03;56.62;99909.97;5033224;28;20049;-83
2022/08/27 08:11:05;;;;;;;5.95;1.30;;;;;;;22.09;56.38;99915.53;5033149;28;20049;-83
2022/08/27 08:13:35;;;;;;;4.80;1.65;;;;;;;22.16;56.62;99922.97;5032633;28;20041;-83
2022/08/27 08:16:01;;;;;;;6.15;1.60;;;;;;;22.20;56.55;99925.16;5032677;28;20052;-83
2022/08/27 08:18:30;;;;;;;5.07;1.45;;;;;;;22.26;56.24;99924.53;5032740;28;20064;-83
2022/08/27 08:21:02;;;;;;;4.53;1.63;;;;;;;22.29;55.89;99918.00;5033204;28;20111;-83
2022/08/27 08:23:28;;;;;;;7.15;1.40;;;;;;;22.36;56.08;99924.38;5032497;28;20456;-83
2022/08/27 08:25:56;;;;;;;4.38;1.52;;;;;;;22.43;56.09;99916.53;5032478;28;20053;-83
2022/08/27 08:28:23;;;;;;;8.45;1.50;;;;;;;22.48;55.48;99916.06;5032153;28;20084;-83
2022/08/27 08:30:51;;;;;;;5.22;1.42;;;;;;;22.55;55.52;99924.34;5032728;28;20053;-86
2022/08/27 08:33:18;;;;;;;8.15;1.83;;;;;;;22.61;55.61;99924.53;5032620;28;20057;-85
2022/08/27 08:35:44;;;;;;;9.35;1.58;;;;;;;22.70;55.27;99925.41;5032382;28;20080;-85
2022/08/27 08:38:11;;;;;;;5.72;1.70;;;;;;;22.78;55.54;99925.44;5031706;28;20053;-84
2022/08/27 08:40:41;;;;;;;7.97;1.98;;;;;;;22.87;55.09;99931.63;5032090;28;20115;-83
2022/08/27 08:43:40;;;;;;;4.90;1.90;;;;;;;22.92;54.81;99925.78;5032820;28;20123;-83
2022/08/27 08:46:15;;;;;;;4.45;2.60;;;;;;;23.06;54.69;99926.16;5026874;28;20049;-84
2022/08/27 08:48:48;;;;;;;3.28;1.60;;;;;;;23.11;54.15;99919.28;5031809;28;20091;-85
2022/08/27 08:51:39;;;;;;;5.55;1.65;;;;;;;23.15;53.98;99923.31;5031859;28;20404;-86
2022/08/27 08:54:12;;;;;;;4.38;1.50;;;;;;;23.20;53.85;99920.13;5032765;28;20048;-85
2022/08/27 08:56:50;;;;;;;7.05;1.65;;;;;;;23.22;53.85;99926.19;5032712;28;20056;-84
2022/08/27 08:59:27;;;;;;;2.50;1.00;;;;;;;23.26;53.84;99924.00;5032211;28;20060;-84
2022/08/27 09:01:53;;;;;;;4.45;1.88;;;;;;;23.28;53.22;99920.13;5031866;28;20104;-83
2022/08/27 09:04:24;;;;;;;2.55;1.20;;;;;;;23.30;52.97;99922.66;5031618;28;20046;-83
2022/08/27 09:06:51;;;;;;;4.45;1.30;;;;;;;23.33;53.04;99924.16;5031591;28;20053;-84
2022/08/27 09:09:22;;;;;;;2.58;1.23;;;;;;;23.33;52.43;99919.63;5031328;28;20050;-85
2022/08/27 09:11:54;;;;;;;3.67;1.60;;;;;;;23.38;53.17;99924.53;5031181;28;20513;-85
2022/08/27 09:14:34;;;;;;;5.50;1.40;;;;;;;23.38;52.57;99925.38;5030849;28;20392;-85
2022/08/27 09:17:03;;;;;;;4.95;1.40;;;;;;;23.45;52.36;99920.16;5030705;28;20059;-85
2022/08/27 09:19:36;;;;;;;3.78;1.77;;;;;;;23.47;52.40;99915.44;5030723;28;20059;-85
2022/08/27 09:22:31;;;;;;;4.55;1.42;;;;;;;23.45;52.29;99930.91;5032580;28;20061;-82
2022/08/27 09:25:14;;;;;;;4.45;1.08;;;;;;;23.50;52.00;99925.88;5035271;28;20457;-82
2022/08/27 09:27:48;;;;;;;6.18;1.65;;;;;;;23.56;52.47;99925.19;5034734;28;20103;-82
2022/08/27 09:30:26;;;;;;;3.38;1.40;;;;;;;23.57;51.74;99934.09;5032965;28;20061;-82
2022/08/27 09:33:00;;;;;;;3.78;1.60;;;;;;;23.62;51.80;99928.22;5034726;28;20057;-83
2022/08/27 09:35:37;;;;;;;9.02;3.25;;;;;;;23.63;51.27;99929.91;5034967;28;20049;-83
2022/08/27 09:38:04;;;;;;;8.98;3.03;;;;;;;23.68;51.32;99936.44;5034573;28;20077;-84
2022/08/27 09:40:38;;;;;;;9.82;3.38;;;;;;;23.69;51.21;99934.59;5034694;28;20072;-83
2022/08/27 09:43:18;;;;;;;6.75;3.50;;;;;;;23.72;51.17;99938.78;5035136;28;20104;-83
2022/08/27 09:45:50;;;;;;;5.65;2.20;;;;;;;23.75;50.53;99933.91;5034378;28;20132;-85
2022/08/27 09:48:20;;;;;;;4.80;1.70;;;;;;;23.77;50.21;99934.56;5034327;28;20061;-84
2022/08/27 09:50:53;;;;;;;7.07;1.77;;;;;;;23.79;50.57;99929.88;5033446;28;20057;-85
2022/08/27 09:53:25;;;;;;;4.15;1.90;;;;;;;23.85;50.93;99922.16;5033994;28;20431;-85
2022/08/27 09:56:02;;;;;;;4.20;1.90;;;;;;;23.88;50.64;99921.81;5033933;28;20199;-84
2022/08/27 09:58:46;;;;;;;3.30;1.33;;;;;;;23.97;50.74;99914.56;5034697;28;20064;-86
2022/08/27 10:01:25;;;;;;;5.80;1.30;;;;;;;24.03;50.89;99912.00;5035661;28;20050;-86
2022/08/27 10:04:05;;;;;;;5.10;1.33;;;;;;;24.10;49.97;99922.94;5040608;28;20096;-85
2022/08/27 10:06:32;;;;;;;4.93;1.25;;;;;;;24.18;49.98;99925.63;5040197;28;20068;-86
2022/08/27 10:09:05;;;;;;;4.97;1.48;;;;;;;24.22;49.41;99928.78;5038579;28;20054;-87
2022/08/27 10:11:39;;;;;;;4.20;1.10;;;;;;;24.26;48.76;99929.31;5038300;28;20060;-85
2022/08/27 10:14:20;;;;;;;2.53;1.00;;;;;;;24.28;48.97;99921.88;5039421;28;20057;-87
2022/08/27 10:16:59;;;;;;;2.80;1.30;;;;;;;24.35;49.18;99922.88;5039011;28;20057;-86
2022/08/27 10:19:34;;;;;;;5.07;1.40;;;;;;;24.36;48.74;99926.41;5039516;28;20145;-87
2022/08/27 10:22:16;;;;;;;2.47;1.20;;;;;;;24.41;48.92;99929.41;5039018;28;20045;-87
2022/08/27 10:25:05;;;;;;;3.45;1.20;;;;;;;24.41;48.51;99934.78;5039145;28;20049;-87
2022/08/27 10:28:01;;;;;;;3.00;0.90;;;;;;;24.46;48.63;99929.72;5040826;28;20100;-87
2022/08/27 10:30:36;;;;;;;2.78;1.25;;;;;;;24.52;48.28;99934.41;5040385;28;20073;-87
2022/08/27 10:33:03;;;;;;;4.13;1.20;;;;;;;24.59;48.12;99921.94;5039488;28;20060;-86
2022/08/27 10:36:04;;;;;;;4.93;1.23;;;;;;;24.62;47.44;99928.00;5041404;28;20107;-86
2022/08/27 10:38:48;;;;;;;5.20;1.20;;;;;;;24.67;47.87;99920.22;5029124;28;20049;-87
2022/08/27 10:41:18;;;;;;;6.20;1.65;;;;;;;24.77;48.34;99925.34;5040826;28;20053;-87
2022/08/27 10:44:38;;;;;;;1.77;1.10;;;;;;;24.85;49.04;99922.66;5039941;28;20060;-86
2022/08/27 10:47:48;;;;;;;3.70;1.05;;;;;;;25.03;48.80;99922.38;5028945;28;20487;-87
2022/08/27 10:51:11;;;;;;;4.50;1.30;;;;;;;25.18;48.88;99930.53;5038588;28;20092;-87
2022/08/27 10:54:21;;;;;;;4.17;1.37;;;;;;;25.26;47.83;99931.50;4978522;28;20520;-87
2022/08/27 10:56:59;;;;;;;4.13;1.40;;;;;;;25.32;46.51;99928.06;4978749;28;20422;-86
2022/08/27 11:00:10;;;;;;;3.03;1.10;;;;;;;25.28;46.64;99926.75;5035325;28;20437;-83
2022/08/27 11:02:43;;;;;;;2.83;1.13;;;;;;;25.28;46.34;99937.53;5035425;28;20462;-83
2022/08/27 11:05:43;;;;;;;6.88;1.40;;;;;;;25.18;47.27;99929.66;5036295;28;20053;-83
2022/08/27 11:08:16;;;;;;;4.05;1.30;;;;;;;25.21;46.56;99932.03;5024500;28;20079;-85
2022/08/27 11:10:48;;;;;;;4.65;1.45;;;;;;;25.23;46.40;99925.44;5035384;28;20053;-85
2022/08/27 11:13:23;;;;;;;3.00;0.93;;;;;;;25.35;47.35;99930.41;5035634;28;20511;-86
2022/08/27 11:15:53;;;;;;;3.53;1.30;;;;;;;25.66;48.23;99929.50;5034866;28;20461;-85
2022/08/27 11:18:39;;;;;;;5.30;1.15;;;;;;;26.12;49.53;99925.81;5034315;28;20115;-85
2022/08/27 11:21:06;;;;;;;4.47;1.45;;;;;;;26.74;48.33;99922.91;5033576;28;20060;-85
2022/08/27 11:23:44;;;;;;;3.63;1.38;;;;;;;27.35;46.16;99925.41;5036428;28;20045;-85
2022/08/27 11:26:11;;;;;;;3.47;1.27;;;;;;;27.84;45.75;99926.41;5034537;28;20069;-84
2022/08/27 11:28:46;;;;;;;3.00;1.40;;;;;;;28.14;43.76;99926.19;5034869;28;20554;-86
2022/08/27 11:31:47;;;;;;;3.05;1.10;;;;;;;28.29;43.84;99923.38;5034298;28;20057;-85
2022/08/27 11:34:41;;;;;;;3.10;1.20;;;;;;;28.34;43.06;99912.78;5035445;28;20049;-83
2022/08/27 11:37:36;;;;;;;3.47;1.27;;;;;;;28.33;42.36;99915.72;5035173;28;20045;-83
2022/08/27 11:40:06;;;;;;;5.72;1.40;;;;;;;28.26;41.52;99914.84;5033289;28;20049;-83
2022/08/27 11:42:47;;;;;;;5.70;1.30;;;;;;;28.07;41.66;99917.22;5034186;28;20056;-83
2022/08/27 11:45:23;;;;;;;4.22;1.38;;;;;;;27.90;41.24;99917.53;5032934;28;20041;-84
2022/08/27 11:47:58;;;;;;;5.20;1.17;;;;;;;27.72;41.43;99915.31;5033252;28;20053;-83
2022/08/27 11:50:27;;;;;;;5.88;1.42;;;;;;;27.57;41.75;99915.38;5034625;28;20053;-83
2022/08/27 11:53:00;;;;;;;3.00;1.17;;;;;;;27.37;41.64;99909.81;5034445;28;20056;-83
2022/08/27 11:55:31;;;;;;;3.00;1.27;;;;;;;27.23;41.80;99920.50;5034920;28;20057;-83
2022/08/27 11:58:06;;;;;;;4.47;1.65;;;;;;;27.04;42.08;99912.03;5033369;28;20053;-84
2022/08/27 12:00:37;;;;;;;3.50;1.15;;;;;;;26.94;41.55;99919.56;5037109;28;20057;-84